Forside
METAR-TAF:

METAR-TAF

Lufthavne :

Norwich, England

Breddekreds: 52-38N, længdekreds: 001-18E, højde: 14 m

Aktuelle vejr

Denne rapport blev lavet for 45 minutter siden, kl. 13:20 UTC
Vind 8 kt fra nordnordøst, varierende mellem nord og østnordøst
Temperatur 9°C
Fugtighed 46%
Tryk 1032 hPa
Sigt 10 km eller mere
Spredte skyer i en højde af 4500 ft

METAR: EGSH 311320Z 03008KT 350V070 9999 SCT045 09/M02 Q1032 NOSIG

Tid: 15:05 (14:05 UTC)

Vejrudsigter

Denne rapport blev lavet for 3 timer og 11 minutter siden, kl. 10:54 UTC
Foreløbig gælder fra 31 på 12 UTC til 31 på 21 UTC
Vind 8 kt fra nordnordøst
Sigt 10 km eller mere
Nogle få skyer i en højde af 4000 ft

TAF: EGSH 311054Z 3112/3121 03008KT 9999 FEW040

Vejrobservationer og prognoser fra mere end 4000 lufthavne (METAR og TAF).

De gule og røde prikker repræsenterer de meteorologiske stationer.

Flyt musen over at se navnet på stationen.

Så klik over at se vejr observationer og prognoser.

At skifte det kort: Klik på de grønne knapper med et sort kors for at zoome ind; på den grønne knap med en bindestreg for at zoome ud; eller på de grønne pile for tilstødende kort.


METAR-TAF: